createdAt,value
2017-03-15T00:00:25.357Z,20.86
2017-03-15T00:00:53.509Z,20.81
2017-03-15T00:01:21.821Z,20.88
2017-03-15T00:01:50.151Z,20.86
2017-03-15T00:02:18.635Z,20.86
2017-03-15T00:02:46.946Z,20.82
2017-03-15T00:03:15.024Z,20.9
2017-03-15T00:03:43.250Z,20.88
2017-03-15T00:04:11.641Z,20.91
2017-03-15T00:04:39.836Z,20.86
2017-03-15T00:05:08.021Z,20.93
2017-03-15T00:05:36.265Z,20.86
2017-03-15T00:06:04.518Z,20.85
2017-03-15T00:06:32.648Z,20.9
2017-03-15T00:07:00.803Z,20.88
2017-03-15T00:07:29.107Z,20.9
2017-03-15T00:07:57.448Z,20.88
2017-03-15T00:08:25.740Z,20.85
2017-03-15T00:08:53.963Z,20.82
2017-03-15T00:09:22.212Z,20.85
2017-03-15T00:09:50.221Z,20.85
2017-03-15T00:10:18.506Z,20.93
2017-03-15T00:10:46.752Z,20.85
2017-03-15T00:11:14.841Z,20.94
2017-03-15T00:11:42.991Z,20.93
2017-03-15T00:12:11.156Z,20.88
2017-03-15T00:12:39.391Z,20.85
2017-03-15T00:13:07.538Z,20.88
2017-03-15T00:13:35.694Z,20.85
2017-03-15T00:14:03.828Z,20.96
2017-03-15T00:14:31.913Z,20.88
2017-03-15T00:15:00.143Z,20.88
2017-03-15T00:15:28.379Z,20.9
2017-03-15T00:15:56.420Z,20.9
2017-03-15T00:16:24.655Z,20.88
2017-03-15T00:16:52.826Z,20.88
2017-03-15T00:17:21.043Z,20.9
2017-03-15T00:17:49.299Z,20.86
2017-03-15T00:18:17.571Z,20.85
2017-03-15T00:18:45.838Z,20.88
2017-03-15T00:19:14.090Z,20.88
2017-03-15T00:19:42.321Z,20.9
2017-03-15T00:20:10.583Z,20.85
2017-03-15T00:20:38.585Z,20.88
2017-03-15T00:21:06.682Z,20.9
2017-03-15T00:21:34.962Z,20.85
2017-03-15T00:22:03.174Z,20.83
2017-03-15T00:22:31.055Z,20.86
2017-03-15T00:22:59.369Z,20.88
2017-03-15T00:23:27.672Z,20.86
2017-03-15T00:23:55.912Z,20.86
2017-03-15T00:24:24.252Z,20.88
2017-03-15T00:24:52.468Z,20.86
2017-03-15T00:25:20.830Z,20.86
2017-03-15T00:25:49.087Z,20.86
2017-03-15T00:26:17.391Z,20.83
2017-03-15T00:26:45.771Z,20.88
2017-03-15T00:27:14.043Z,20.82
2017-03-15T00:27:42.458Z,20.86
2017-03-15T00:28:10.589Z,20.81
2017-03-15T00:28:38.964Z,20.85
2017-03-15T00:29:07.179Z,20.76
2017-03-15T00:29:35.423Z,20.83
2017-03-15T00:30:03.693Z,20.85
2017-03-15T00:30:32.682Z,20.81
2017-03-15T00:31:00.888Z,20.85
2017-03-15T00:31:29.115Z,20.83
2017-03-15T00:31:57.358Z,20.88
2017-03-15T00:32:25.616Z,20.86
2017-03-15T00:32:53.864Z,20.88
2017-03-15T00:33:22.183Z,20.88
2017-03-15T00:33:50.270Z,20.83
2017-03-15T00:34:18.513Z,20.88
2017-03-15T00:34:46.849Z,20.88
2017-03-15T00:35:15.061Z,20.9
2017-03-15T00:35:43.350Z,20.93
2017-03-15T00:36:11.580Z,20.85
2017-03-15T00:36:39.810Z,20.85
2017-03-15T00:37:07.936Z,20.86
2017-03-15T00:37:36.244Z,20.86
2017-03-15T00:38:04.403Z,20.86
2017-03-15T00:38:32.518Z,20.83
2017-03-15T00:39:00.603Z,20.93
2017-03-15T00:39:28.644Z,21.01
2017-03-15T00:39:56.822Z,21.04
2017-03-15T00:40:25.399Z,21.04
2017-03-15T00:40:53.540Z,21.01
2017-03-15T00:41:21.792Z,21.03
2017-03-15T00:41:50.023Z,21.06
2017-03-15T00:42:18.181Z,21.01
2017-03-15T00:42:46.393Z,21.06
2017-03-15T00:43:14.558Z,21.06
2017-03-15T00:43:42.786Z,21.15
2017-03-15T00:44:10.962Z,21.08
2017-03-15T00:44:39.221Z,21.11
2017-03-15T00:45:07.376Z,21.15
2017-03-15T00:45:35.634Z,21.13
2017-03-15T00:46:03.766Z,21.12
2017-03-15T00:46:31.953Z,21.18
2017-03-15T00:47:00.187Z,21.13
2017-03-15T00:47:28.328Z,21.15
2017-03-15T00:47:56.718Z,21.18
2017-03-15T00:48:24.915Z,21.13
2017-03-15T00:48:53.092Z,21.16
2017-03-15T00:49:21.194Z,21.13
2017-03-15T00:49:49.389Z,21.18
2017-03-15T00:50:17.629Z,21.15
2017-03-15T00:50:45.635Z,21.15
2017-03-15T00:51:13.913Z,21.12
2017-03-15T00:51:42.202Z,21.19
2017-03-15T00:52:10.486Z,21.18
2017-03-15T00:52:38.563Z,21.21
2017-03-15T00:53:06.845Z,21.23
2017-03-15T00:53:34.919Z,21.25
2017-03-15T00:54:03.160Z,21.27
2017-03-15T00:54:31.298Z,21.16
2017-03-15T00:54:59.461Z,21.27
2017-03-15T00:55:27.628Z,21.22
2017-03-15T00:55:55.780Z,21.23
2017-03-15T00:56:24.017Z,21.21
2017-03-15T00:56:52.297Z,21.16
2017-03-15T00:57:20.488Z,21.15
2017-03-15T00:57:48.831Z,21.16
2017-03-15T00:58:16.955Z,21.15
2017-03-15T00:58:45.180Z,21.13
2017-03-15T00:59:13.490Z,21.15
2017-03-15T00:59:41.639Z,21.16
2017-03-15T01:00:09.798Z,21.12
2017-03-15T01:00:37.983Z,21.16
2017-03-15T01:01:06.191Z,21.23
2017-03-15T01:01:34.387Z,21.25
2017-03-15T01:02:02.633Z,21.23
2017-03-15T01:02:30.781Z,21.25
2017-03-15T01:02:59.073Z,21.25
2017-03-15T01:03:27.190Z,21.23
2017-03-15T01:03:55.377Z,21.28
2017-03-15T01:04:23.494Z,21.15
2017-03-15T01:04:51.539Z,21.22
2017-03-15T01:05:19.776Z,21.23
2017-03-15T01:05:47.823Z,21.3
2017-03-15T01:06:15.953Z,21.28
2017-03-15T01:06:44.005Z,21.25
2017-03-15T01:07:12.272Z,21.22
2017-03-15T01:07:40.565Z,21.25
2017-03-15T01:08:08.892Z,21.22
2017-03-15T01:08:37.032Z,21.27
2017-03-15T01:09:05.090Z,21.22
2017-03-15T01:09:33.264Z,21.28
2017-03-15T01:10:01.520Z,21.25
2017-03-15T01:10:29.787Z,21.3
2017-03-15T01:10:57.960Z,21.25
2017-03-15T01:11:26.203Z,21.27
2017-03-15T01:11:54.194Z,21.15
2017-03-15T01:12:22.390Z,21.21
2017-03-15T01:12:50.446Z,21.13
2017-03-15T01:13:18.696Z,21.16
2017-03-15T01:13:46.961Z,21.13
2017-03-15T01:14:15.173Z,21.13
2017-03-15T01:14:43.596Z,21.16
2017-03-15T01:15:11.771Z,21.16
2017-03-15T01:15:40.010Z,21.12
2017-03-15T01:16:08.121Z,21.13
2017-03-15T01:16:36.363Z,21.16
2017-03-15T01:17:04.519Z,21.12
2017-03-15T01:17:32.808Z,21.15
2017-03-15T01:18:01.043Z,21.09
2017-03-15T01:18:29.238Z,21.06
2017-03-15T01:18:57.386Z,21.03
2017-03-15T01:19:25.506Z,20.97
2017-03-15T01:19:53.639Z,21
2017-03-15T01:20:21.921Z,21.12
2017-03-15T01:20:49.969Z,21.08
2017-03-15T01:21:18.276Z,20.97
2017-03-15T01:21:46.329Z,21.06
2017-03-15T01:22:14.519Z,21.09
2017-03-15T01:22:42.968Z,21.08
2017-03-15T01:23:11.327Z,21.06
2017-03-15T01:23:39.613Z,20.98
2017-03-15T01:24:08.360Z,21.06
2017-03-15T01:24:36.634Z,21.15
2017-03-15T01:25:05.059Z,21.13
2017-03-15T01:25:33.362Z,21.15
2017-03-15T01:26:01.617Z,21.11
2017-03-15T01:26:29.857Z,21.15
2017-03-15T01:26:58.658Z,21.16
2017-03-15T01:27:27.127Z,21.13
2017-03-15T01:27:55.354Z,21.11
2017-03-15T01:28:23.969Z,21.11
2017-03-15T01:28:52.427Z,21.18
2017-03-15T01:29:20.987Z,21.15
2017-03-15T01:29:49.340Z,21.15
2017-03-15T01:30:17.727Z,21.13
2017-03-15T01:30:46.287Z,21.15
2017-03-15T01:31:14.588Z,21.16
2017-03-15T01:31:43.015Z,21.21
2017-03-15T01:32:11.371Z,21.31
2017-03-15T01:32:39.827Z,21.28
2017-03-15T01:33:08.484Z,21.27
2017-03-15T01:33:36.753Z,21.22
2017-03-15T01:34:04.973Z,21.27
2017-03-15T01:34:33.236Z,21.28
2017-03-15T01:35:01.475Z,21.12
2017-03-15T01:35:29.746Z,21.25
2017-03-15T01:35:58.411Z,21.23
2017-03-15T01:36:26.668Z,21.21
2017-03-15T01:36:54.807Z,21.28
2017-03-15T01:37:22.951Z,21.25
2017-03-15T01:37:51.119Z,21.25
2017-03-15T01:38:19.471Z,21.23
2017-03-15T01:38:47.731Z,21.25
2017-03-15T01:39:16.002Z,21.23
2017-03-15T01:39:44.198Z,21.15
2017-03-15T01:40:12.436Z,21.25
2017-03-15T01:40:40.576Z,21.27
2017-03-15T01:41:08.831Z,21.15
2017-03-15T01:41:37.079Z,21.15
2017-03-15T01:42:05.323Z,21.18
2017-03-15T01:42:33.499Z,21.18
2017-03-15T01:43:01.677Z,21.13
2017-03-15T01:43:30.116Z,21.15
2017-03-15T01:43:58.256Z,21.15
2017-03-15T01:44:26.333Z,21.16
2017-03-15T01:44:54.551Z,21.22
2017-03-15T01:45:22.690Z,21.25
2017-03-15T01:45:50.892Z,21.22
2017-03-15T01:46:19.136Z,21.3
2017-03-15T01:46:47.366Z,21.3
2017-03-15T01:47:15.635Z,21.25
2017-03-15T01:47:43.869Z,21.27
2017-03-15T01:48:11.987Z,21.28
2017-03-15T01:48:40.327Z,21.21
2017-03-15T01:49:08.401Z,21.25
2017-03-15T01:49:36.674Z,21.23
2017-03-15T01:50:04.887Z,21.19
2017-03-15T01:50:33.197Z,21.23
2017-03-15T01:51:02.367Z,21.23
2017-03-15T01:51:30.448Z,21.22
2017-03-15T01:51:58.820Z,21.28
2017-03-15T01:52:27.075Z,21.27
2017-03-15T01:52:55.325Z,21.3
2017-03-15T01:53:23.578Z,21.27
2017-03-15T01:53:51.795Z,21.22
2017-03-15T01:54:20.040Z,21.31
2017-03-15T01:54:48.104Z,21.27
2017-03-15T01:55:16.324Z,21.27
2017-03-15T01:55:44.480Z,21.28
2017-03-15T01:56:12.760Z,21.21
2017-03-15T01:56:40.998Z,21.21
2017-03-15T01:57:09.119Z,21.28
2017-03-15T01:57:37.235Z,21.22
2017-03-15T01:58:05.483Z,21.25
2017-03-15T01:58:33.896Z,21.33
2017-03-15T01:59:02.140Z,21.27
2017-03-15T01:59:30.393Z,21.33
2017-03-15T01:59:58.601Z,21.27
2017-03-15T02:00:26.830Z,21.27
2017-03-15T02:00:55.115Z,21.34
2017-03-15T02:01:23.389Z,21.23
2017-03-15T02:01:51.474Z,21.3
2017-03-15T02:02:19.662Z,21.25
2017-03-15T02:02:47.821Z,21.34
2017-03-15T02:03:16.003Z,21.33
2017-03-15T02:03:44.290Z,21.37
2017-03-15T02:04:12.555Z,21.27
2017-03-15T02:04:40.701Z,21.37
2017-03-15T02:05:08.931Z,21.33
2017-03-15T02:05:36.970Z,21.28
2017-03-15T02:06:05.201Z,21.27
2017-03-15T02:06:33.271Z,21.34
2017-03-15T02:07:01.425Z,21.28
2017-03-15T02:07:29.601Z,21.33
2017-03-15T02:07:57.865Z,21.25
2017-03-15T02:08:26.070Z,21.34
2017-03-15T02:08:54.430Z,21.3
2017-03-15T02:09:22.691Z,21.3
2017-03-15T02:09:50.850Z,21.34
2017-03-15T02:10:18.993Z,21.25
2017-03-15T02:10:47.150Z,21.27
2017-03-15T02:11:15.438Z,21.3
2017-03-15T02:11:43.565Z,21.31
2017-03-15T02:12:11.905Z,21.28
2017-03-15T02:12:40.139Z,21.23
2017-03-15T02:13:08.334Z,21.28
2017-03-15T02:13:36.517Z,21.23
2017-03-15T02:14:04.576Z,21.3
2017-03-15T02:14:32.610Z,21.25
2017-03-15T02:15:00.889Z,21.23
2017-03-15T02:15:28.985Z,21.28
2017-03-15T02:15:57.250Z,21.25
2017-03-15T02:16:25.331Z,21.25
2017-03-15T02:16:53.482Z,21.28
2017-03-15T02:17:21.596Z,21.25
2017-03-15T02:17:49.745Z,21.25
2017-03-15T02:18:17.883Z,21.22
2017-03-15T02:18:46.051Z,21.3
2017-03-15T02:19:14.151Z,21.25
2017-03-15T02:19:42.242Z,21.16
2017-03-15T02:20:10.481Z,21.31
2017-03-15T02:20:38.706Z,21.23
2017-03-15T02:21:06.852Z,21.28
2017-03-15T02:21:34.996Z,21.25
2017-03-15T02:22:03.145Z,21.23
2017-03-15T02:22:31.329Z,21.21
2017-03-15T02:22:59.454Z,21.28
2017-03-15T02:23:27.617Z,21.27
2017-03-15T02:23:55.894Z,21.27
2017-03-15T02:24:24.086Z,21.23
2017-03-15T02:24:52.126Z,21.25
2017-03-15T02:25:20.402Z,21.27
2017-03-15T02:25:48.701Z,21.27
2017-03-15T02:26:16.858Z,21.28
2017-03-15T02:26:44.949Z,21.28
2017-03-15T02:27:13.142Z,21.23
2017-03-15T02:27:41.436Z,21.19
2017-03-15T02:28:09.474Z,21.12
2017-03-15T02:28:37.622Z,21.27
2017-03-15T02:29:05.855Z,21.15
2017-03-15T02:29:34.045Z,21.16
2017-03-15T02:30:02.172Z,21.21
2017-03-15T02:30:30.441Z,21.16
2017-03-15T02:30:58.686Z,21.16
2017-03-15T02:31:26.962Z,21.21
2017-03-15T02:31:55.111Z,21.15
2017-03-15T02:32:23.247Z,21.13
2017-03-15T02:32:51.272Z,21.15
2017-03-15T02:33:19.572Z,21.15
2017-03-15T02:33:47.765Z,21.12
2017-03-15T02:34:16.012Z,21.15
2017-03-15T02:34:44.268Z,21.15
2017-03-15T02:35:12.475Z,21.11
2017-03-15T02:35:40.492Z,21.18
2017-03-15T02:36:08.634Z,21.18
2017-03-15T02:36:36.873Z,21.16
2017-03-15T02:37:05.099Z,21.12
2017-03-15T02:37:33.165Z,21.18
2017-03-15T02:38:01.441Z,21.16
2017-03-15T02:38:29.636Z,21.11
2017-03-15T02:38:57.889Z,21.13
2017-03-15T02:39:25.981Z,21.21
2017-03-15T02:39:54.188Z,21.13
2017-03-15T02:40:22.309Z,21.06
2017-03-15T02:40:50.578Z,21.15
2017-03-15T02:41:18.832Z,21.09
2017-03-15T02:41:47.132Z,21.12
2017-03-15T02:42:15.304Z,21.09
2017-03-15T02:42:43.386Z,21.12
2017-03-15T02:43:11.512Z,21.09
2017-03-15T02:43:39.756Z,21.12
2017-03-15T02:44:08.160Z,21.09
2017-03-15T02:44:36.375Z,21.13
2017-03-15T02:45:04.624Z,21.08
2017-03-15T02:45:32.883Z,21.12
2017-03-15T02:46:00.936Z,21.09
2017-03-15T02:46:29.213Z,21.08
2017-03-15T02:46:57.288Z,21.12
2017-03-15T02:47:25.506Z,21.11
2017-03-15T02:47:53.686Z,21.04
2017-03-15T02:48:21.942Z,21.12
2017-03-15T02:48:50.212Z,21.11
2017-03-15T02:49:18.244Z,21.08
2017-03-15T02:49:46.541Z,21.09
2017-03-15T02:50:14.705Z,21.08
2017-03-15T02:50:42.883Z,21.11
2017-03-15T02:51:11.084Z,21.12
2017-03-15T02:51:39.356Z,21.15
2017-03-15T02:52:07.608Z,21.18
2017-03-15T02:52:35.767Z,21.15
2017-03-15T02:53:03.823Z,21.08
2017-03-15T02:53:32.030Z,21.21
2017-03-15T02:54:00.359Z,21.15
2017-03-15T02:54:28.410Z,21.13
2017-03-15T02:54:56.660Z,21.16
2017-03-15T02:55:24.929Z,21.15
2017-03-15T02:55:53.193Z,21.21
2017-03-15T02:56:21.357Z,21.19
2017-03-15T02:56:49.503Z,21.15
2017-03-15T02:57:17.730Z,21.15
2017-03-15T02:57:45.961Z,21.15
2017-03-15T02:58:14.083Z,21.19
2017-03-15T02:58:42.260Z,21.18
2017-03-15T02:59:10.561Z,21.21
2017-03-15T02:59:38.861Z,21.18
2017-03-15T03:00:06.910Z,21.23
2017-03-15T03:00:35.135Z,21.23
2017-03-15T03:01:03.202Z,21.19
2017-03-15T03:01:31.447Z,21.18
2017-03-15T03:01:59.614Z,21.15
2017-03-15T03:02:27.849Z,21.13
2017-03-15T03:02:56.076Z,21.22
2017-03-15T03:03:24.301Z,21.21
2017-03-15T03:03:52.482Z,21.13
2017-03-15T03:04:20.757Z,21.21
2017-03-15T03:04:49.018Z,21.12
2017-03-15T03:05:17.164Z,21.12
2017-03-15T03:05:45.309Z,21.15
2017-03-15T03:06:13.477Z,21.15
2017-03-15T03:06:41.556Z,21.16
2017-03-15T03:07:09.844Z,21.15
2017-03-15T03:07:37.957Z,21.12
2017-03-15T03:08:06.211Z,21.15
2017-03-15T03:08:34.525Z,21.11
2017-03-15T03:09:02.867Z,21.16
2017-03-15T03:09:31.127Z,21.19
2017-03-15T03:09:59.198Z,21.15
2017-03-15T03:10:27.276Z,21.08
2017-03-15T03:10:55.396Z,21.15
2017-03-15T03:11:23.674Z,21.16
2017-03-15T03:11:51.959Z,21.04
2017-03-15T03:12:20.202Z,21.11
2017-03-15T03:12:48.413Z,21.04
2017-03-15T03:13:16.640Z,21.09
2017-03-15T03:13:44.816Z,21.15
2017-03-15T03:14:13.092Z,21.03
2017-03-15T03:14:41.153Z,21.12
2017-03-15T03:15:09.371Z,21.04
2017-03-15T03:15:37.630Z,21.08
2017-03-15T03:16:05.938Z,21.06
2017-03-15T03:16:34.195Z,21.12
2017-03-15T03:17:02.224Z,21.18
2017-03-15T03:17:30.371Z,21.06
2017-03-15T03:17:58.507Z,21.12
2017-03-15T03:18:26.642Z,21.13
2017-03-15T03:18:54.790Z,21.09
2017-03-15T03:19:23.320Z,21.08
2017-03-15T03:19:51.575Z,21.12
2017-03-15T03:20:19.809Z,21
2017-03-15T03:20:48.056Z,21.03
2017-03-15T03:21:16.258Z,21.09
2017-03-15T03:21:44.404Z,21.09
2017-03-15T03:22:12.553Z,21.01
2017-03-15T03:22:40.618Z,20.98
2017-03-15T03:23:08.845Z,21
2017-03-15T03:23:37.008Z,21.03
2017-03-15T03:24:05.145Z,21.04
2017-03-15T03:24:33.325Z,21.01
2017-03-15T03:25:01.367Z,20.96
2017-03-15T03:25:29.434Z,20.96
2017-03-15T03:25:57.523Z,20.97
2017-03-15T03:26:25.781Z,20.97
2017-03-15T03:26:53.795Z,20.93
2017-03-15T03:27:22.013Z,20.93
2017-03-15T03:27:50.181Z,20.9
2017-03-15T03:28:18.367Z,21
2017-03-15T03:28:46.621Z,20.96
2017-03-15T03:29:15.048Z,20.88
2017-03-15T03:29:43.216Z,20.94
2017-03-15T03:30:11.366Z,20.93
2017-03-15T03:30:39.617Z,20.94
2017-03-15T03:31:07.773Z,20.98
2017-03-15T03:31:35.931Z,20.96
2017-03-15T03:32:04.051Z,20.97
2017-03-15T03:32:32.275Z,20.93
2017-03-15T03:33:00.498Z,20.94
2017-03-15T03:33:28.769Z,20.94
2017-03-15T03:33:57.007Z,20.96
2017-03-15T03:34:25.406Z,20.96
2017-03-15T03:34:53.663Z,20.97
2017-03-15T03:35:21.815Z,20.9
2017-03-15T03:35:49.993Z,20.98
2017-03-15T03:36:18.132Z,21.01
2017-03-15T03:36:46.188Z,20.98
2017-03-15T03:37:14.433Z,20.96
2017-03-15T03:37:42.533Z,20.91
2017-03-15T03:38:10.702Z,20.94
2017-03-15T03:38:38.818Z,20.98
2017-03-15T03:39:06.894Z,20.88
2017-03-15T03:39:35.377Z,20.97
2017-03-15T03:40:03.397Z,20.96
2017-03-15T03:40:31.567Z,20.94
2017-03-15T03:40:59.778Z,20.96
2017-03-15T03:41:28.029Z,20.9
2017-03-15T03:41:56.221Z,20.91
2017-03-15T03:42:24.379Z,20.88
2017-03-15T03:42:52.543Z,20.86
2017-03-15T03:43:20.786Z,20.96
2017-03-15T03:43:48.940Z,20.96
2017-03-15T03:44:16.985Z,20.94
2017-03-15T03:44:45.253Z,20.93
2017-03-15T03:45:13.523Z,20.98
2017-03-15T03:45:41.594Z,20.98
2017-03-15T03:46:09.679Z,20.93
2017-03-15T03:46:37.869Z,20.94
2017-03-15T03:47:06.020Z,20.97
2017-03-15T03:47:34.323Z,20.88
2017-03-15T03:48:02.448Z,21.01
2017-03-15T03:48:30.687Z,20.88
2017-03-15T03:48:58.924Z,20.96
2017-03-15T03:49:27.213Z,20.97
2017-03-15T03:49:55.366Z,21.04
2017-03-15T03:50:23.566Z,21.01
2017-03-15T03:50:51.711Z,20.93
2017-03-15T03:51:19.958Z,21.04
2017-03-15T03:51:48.096Z,20.98
2017-03-15T03:52:16.057Z,21.06
2017-03-15T03:52:44.131Z,21.04
2017-03-15T03:53:12.374Z,21.03
2017-03-15T03:53:40.606Z,21.01
2017-03-15T03:54:08.847Z,21.03
2017-03-15T03:54:37.251Z,20.98
2017-03-15T03:55:05.486Z,21.03
2017-03-15T03:55:33.892Z,21.04
2017-03-15T03:56:02.100Z,21.03
2017-03-15T03:56:30.223Z,20.94
2017-03-15T03:56:58.466Z,21.01
2017-03-15T03:57:26.558Z,21.06
2017-03-15T03:57:54.810Z,21.06
2017-03-15T03:58:23.023Z,20.98
2017-03-15T03:58:51.316Z,21.01
2017-03-15T03:59:19.632Z,21.06
2017-03-15T03:59:47.672Z,20.96
2017-03-15T04:00:15.897Z,20.98
2017-03-15T04:00:44.219Z,21.03
2017-03-15T04:01:12.350Z,21.06
2017-03-15T04:01:40.504Z,20.98
2017-03-15T04:02:08.668Z,21.06
2017-03-15T04:02:36.887Z,21.04
2017-03-15T04:03:04.957Z,20.98
2017-03-15T04:03:33.051Z,21.15
2017-03-15T04:04:01.323Z,21.09
2017-03-15T04:04:29.532Z,21.01
2017-03-15T04:04:57.711Z,21.08
2017-03-15T04:05:25.859Z,20.98
2017-03-15T04:05:54.095Z,21
2017-03-15T04:06:22.324Z,21.01
2017-03-15T04:06:50.341Z,21
2017-03-15T04:07:18.613Z,21.06
2017-03-15T04:07:46.902Z,21.04
2017-03-15T04:08:15.169Z,21.01
2017-03-15T04:08:43.349Z,21
2017-03-15T04:09:11.612Z,21
2017-03-15T04:09:39.780Z,21.06
2017-03-15T04:10:07.762Z,20.98
2017-03-15T04:10:35.806Z,21.03
2017-03-15T04:11:03.882Z,21.04
2017-03-15T04:11:32.149Z,21
2017-03-15T04:12:00.285Z,21.04
2017-03-15T04:12:28.488Z,20.97
2017-03-15T04:12:56.746Z,21.03
2017-03-15T04:13:24.866Z,21.04
2017-03-15T04:13:53.102Z,21.03
2017-03-15T04:14:21.323Z,21.01
2017-03-15T04:14:49.682Z,20.93
2017-03-15T04:15:17.898Z,21.01
2017-03-15T04:15:46.054Z,21.04
2017-03-15T04:16:14.303Z,20.96
2017-03-15T04:16:42.488Z,21
2017-03-15T04:17:10.722Z,20.96
2017-03-15T04:17:39.129Z,20.98
2017-03-15T04:18:07.495Z,21
2017-03-15T04:18:35.739Z,20.98
2017-03-15T04:19:04.082Z,20.96
2017-03-15T04:19:32.409Z,20.96
2017-03-15T04:20:00.549Z,21
2017-03-15T04:20:28.828Z,21
2017-03-15T04:20:56.931Z,21
2017-03-15T04:21:25.161Z,21.04
2017-03-15T04:21:53.461Z,21.01
2017-03-15T04:22:21.538Z,21.03
2017-03-15T04:22:49.594Z,21.01
2017-03-15T04:23:17.873Z,21.06
2017-03-15T04:23:46.026Z,21.04
2017-03-15T04:24:14.242Z,21.03
2017-03-15T04:24:42.576Z,21
2017-03-15T04:25:10.596Z,21.06
2017-03-15T04:25:38.840Z,21.03
2017-03-15T04:26:06.978Z,21.08
2017-03-15T04:26:35.198Z,21.03
2017-03-15T04:27:03.424Z,20.97
2017-03-15T04:27:31.610Z,21.04
2017-03-15T04:27:59.741Z,21.09
2017-03-15T04:28:27.927Z,21.09
2017-03-15T04:28:56.167Z,20.98
2017-03-15T04:29:24.421Z,21.09
2017-03-15T04:29:52.663Z,21.11
2017-03-15T04:30:20.820Z,21.21
2017-03-15T04:30:49.100Z,21.12
2017-03-15T04:31:17.307Z,21.08
2017-03-15T04:31:45.529Z,21.13
2017-03-15T04:32:13.803Z,21.13
2017-03-15T04:32:42.039Z,21.12
2017-03-15T04:33:10.260Z,21.18
2017-03-15T04:33:38.244Z,21.19
2017-03-15T04:34:06.481Z,21.16
2017-03-15T04:34:34.733Z,21.15
2017-03-15T04:35:02.789Z,21.15
2017-03-15T04:35:31.061Z,21.16
2017-03-15T04:35:59.213Z,21.15
2017-03-15T04:36:27.563Z,21.16
2017-03-15T04:36:55.621Z,21.15
2017-03-15T04:37:23.876Z,21.15
2017-03-15T04:37:51.966Z,21.16
2017-03-15T04:38:20.081Z,21.16
2017-03-15T04:38:48.256Z,21.16
2017-03-15T04:39:16.344Z,21.12
2017-03-15T04:39:44.613Z,21.18
2017-03-15T04:40:12.879Z,21.12
2017-03-15T04:40:41.008Z,21.13
2017-03-15T04:41:09.253Z,21.15
2017-03-15T04:41:37.346Z,21.16
2017-03-15T04:42:05.548Z,21.11
2017-03-15T04:42:33.816Z,21.13
2017-03-15T04:43:01.995Z,21.15
2017-03-15T04:43:30.122Z,21.13
2017-03-15T04:43:58.391Z,21.19
2017-03-15T04:44:26.494Z,21.16
2017-03-15T04:44:54.476Z,21.13
2017-03-15T04:45:22.590Z,21.19
2017-03-15T04:45:50.663Z,21.12
2017-03-15T04:46:18.864Z,21.23
2017-03-15T04:46:47.135Z,21.12
2017-03-15T04:47:15.289Z,21.15
2017-03-15T04:47:43.456Z,21.23
2017-03-15T04:48:11.712Z,21.19
2017-03-15T04:48:39.856Z,21.18
2017-03-15T04:49:08.076Z,21.21
2017-03-15T04:49:36.229Z,21.12
2017-03-15T04:50:04.423Z,21.13
2017-03-15T04:50:32.707Z,21.13
2017-03-15T04:51:01.016Z,21.22
2017-03-15T04:51:29.313Z,21.18
2017-03-15T04:51:57.405Z,21.13
2017-03-15T04:52:25.550Z,21.18
2017-03-15T04:52:53.698Z,21.13
2017-03-15T04:53:21.955Z,21.16
2017-03-15T04:53:50.107Z,21.15
2017-03-15T04:54:18.242Z,21.16
2017-03-15T04:54:46.531Z,21.15
2017-03-15T04:55:14.668Z,21.15
2017-03-15T04:55:42.741Z,21.31
2017-03-15T04:56:10.917Z,21.21
2017-03-15T04:56:39.193Z,21.19
2017-03-15T04:57:07.318Z,21.19
2017-03-15T04:57:35.561Z,21.16
2017-03-15T04:58:03.701Z,21.13
2017-03-15T04:58:31.898Z,21.15
2017-03-15T04:59:00.099Z,21.13
2017-03-15T04:59:28.208Z,21.13
2017-03-15T04:59:56.454Z,21.19
2017-03-15T05:00:24.594Z,21.21
2017-03-15T05:00:52.824Z,21.21
2017-03-15T05:01:20.970Z,21.13
2017-03-15T05:01:49.340Z,21.15
2017-03-15T05:02:17.531Z,21.12
2017-03-15T05:02:45.656Z,21.13
2017-03-15T05:03:13.930Z,21.12
2017-03-15T05:03:42.070Z,21.21
2017-03-15T05:04:10.151Z,21.15
2017-03-15T05:04:38.390Z,21.22
2017-03-15T05:05:06.523Z,21.15
2017-03-15T05:05:34.636Z,21.12
2017-03-15T05:06:02.837Z,21.13
2017-03-15T05:06:31.037Z,21.15
2017-03-15T05:06:59.588Z,21.15
2017-03-15T05:07:28.244Z,21.12
2017-03-15T05:07:56.502Z,21.21
2017-03-15T05:08:24.534Z,21.15
2017-03-15T05:08:52.751Z,21.21
2017-03-15T05:09:20.877Z,21.21
2017-03-15T05:09:49.058Z,21.19
2017-03-15T05:10:17.123Z,21.15
2017-03-15T05:10:45.321Z,21.16
2017-03-15T05:11:13.391Z,21.18
2017-03-15T05:11:41.643Z,21.13
2017-03-15T05:12:09.862Z,21.28
2017-03-15T05:12:38.111Z,21.18
2017-03-15T05:13:06.189Z,21.28
2017-03-15T05:13:34.325Z,21.16
2017-03-15T05:14:02.269Z,21.13
2017-03-15T05:14:30.468Z,21.22
2017-03-15T05:14:58.610Z,21.15
2017-03-15T05:15:26.839Z,21.12
2017-03-15T05:15:55.102Z,21.23
2017-03-15T05:16:23.373Z,21.28
2017-03-15T05:16:51.686Z,21.25
2017-03-15T05:17:19.932Z,21.19
2017-03-15T05:17:48.086Z,21.13
2017-03-15T05:18:16.243Z,21.23
2017-03-15T05:18:44.389Z,21.15
2017-03-15T05:19:12.616Z,21.13
2017-03-15T05:19:40.874Z,21.16
2017-03-15T05:20:09.136Z,21.21
2017-03-15T05:20:37.235Z,21.15
2017-03-15T05:21:05.400Z,21.15
2017-03-15T05:21:33.571Z,21.21
2017-03-15T05:22:01.882Z,21.13
2017-03-15T05:22:30.071Z,21.13
2017-03-15T05:22:58.313Z,21.13
2017-03-15T05:23:26.667Z,21.15
2017-03-15T05:23:54.934Z,21.15
2017-03-15T05:24:23.119Z,21.15
2017-03-15T05:24:51.360Z,21.15
2017-03-15T05:25:19.679Z,21.15
2017-03-15T05:25:47.957Z,21.16
2017-03-15T05:26:15.982Z,21.12
2017-03-15T05:26:44.164Z,21.15
2017-03-15T05:27:12.309Z,21.18
2017-03-15T05:27:40.596Z,21.13
2017-03-15T05:28:08.646Z,21.16
2017-03-15T05:28:36.826Z,21.15
2017-03-15T05:29:04.950Z,21.16
2017-03-15T05:29:33.106Z,21.08
2017-03-15T05:30:01.365Z,21.08
2017-03-15T05:30:29.548Z,21.11
2017-03-15T05:30:57.714Z,21.15
2017-03-15T05:31:25.924Z,21.12
2017-03-15T05:31:54.227Z,21.15
2017-03-15T05:32:22.518Z,21.09
2017-03-15T05:32:50.581Z,21.15
2017-03-15T05:33:18.730Z,21.13
2017-03-15T05:33:46.895Z,21.13
2017-03-15T05:34:14.923Z,21.08
2017-03-15T05:34:43.107Z,21.09
2017-03-15T05:35:11.366Z,21.09
2017-03-15T05:35:39.572Z,21.11
2017-03-15T05:36:07.803Z,21.11
2017-03-15T05:36:36.085Z,21.08
2017-03-15T05:37:04.360Z,21.16
2017-03-15T05:37:32.589Z,21.08
2017-03-15T05:38:00.854Z,21.12
2017-03-15T05:38:29.121Z,21.18
2017-03-15T05:38:57.352Z,21.16
2017-03-15T05:39:25.587Z,21.15
2017-03-15T05:39:53.812Z,21.21
2017-03-15T05:40:22.099Z,21.15
2017-03-15T05:40:50.195Z,21.16
2017-03-15T05:41:18.326Z,21.15
2017-03-15T05:41:46.610Z,21.08
2017-03-15T05:42:14.682Z,21.23
2017-03-15T05:42:42.647Z,21.13
2017-03-15T05:43:10.802Z,21.18
2017-03-15T05:43:38.966Z,21.15
2017-03-15T05:44:07.045Z,21.13
2017-03-15T05:44:35.256Z,21.23
2017-03-15T05:45:03.531Z,21.13
2017-03-15T05:45:31.676Z,21.15
2017-03-15T05:45:59.950Z,21.27
2017-03-15T05:46:28.110Z,21.23
2017-03-15T05:46:56.696Z,21.25
2017-03-15T05:47:24.772Z,21.25
2017-03-15T05:47:52.893Z,21.25
2017-03-15T05:48:21.147Z,21.25
2017-03-15T05:48:49.358Z,21.28
2017-03-15T05:49:17.490Z,21.16
2017-03-15T05:49:45.664Z,21.22
2017-03-15T05:50:13.662Z,21.23
2017-03-15T05:50:41.812Z,21.25
2017-03-15T05:51:09.947Z,21.3
2017-03-15T05:51:38.083Z,21.15
2017-03-15T05:52:06.308Z,21.18
2017-03-15T05:52:34.534Z,21.13
2017-03-15T05:53:02.717Z,21.11
2017-03-15T05:53:30.926Z,21.16
2017-03-15T05:53:59.092Z,21.15
2017-03-15T05:54:27.071Z,21.12
2017-03-15T05:54:55.287Z,21.06
2017-03-15T05:55:23.540Z,20.96
2017-03-15T05:55:51.786Z,21.06
2017-03-15T05:56:20.050Z,21.01
2017-03-15T05:56:48.239Z,20.98
2017-03-15T05:57:16.473Z,21
2017-03-15T05:57:44.745Z,20.97
2017-03-15T05:58:12.830Z,20.88
2017-03-15T05:58:40.933Z,20.94
2017-03-15T05:59:09.113Z,20.9
2017-03-15T05:59:37.322Z,20.88
2017-03-15T06:00:05.578Z,20.86
2017-03-15T06:00:33.839Z,20.91
2017-03-15T06:01:01.952Z,20.83
2017-03-15T06:01:30.100Z,20.79
2017-03-15T06:01:58.354Z,20.86
2017-03-15T06:02:26.573Z,20.9
2017-03-15T06:02:54.641Z,20.86
2017-03-15T06:03:22.777Z,20.86
2017-03-15T06:03:50.977Z,20.9
2017-03-15T06:04:19.222Z,20.86
2017-03-15T06:04:47.465Z,20.83